TAF and METAR

METAR for Naples Airport

LIRN 192120Z VRB01KT CAVOK 15/13 Q1019 NOSIG
Report created 19. okt 23:20
wind 1 knots from various directions Clear sky Temperature 15° with dewpoint at 13° (Humidity 87.85%) Pressure 1019 hPa no significant weather change expected the next couple of hours

TAF for Naples Airport

TAF LIRN 191700Z 1918/2018 VRB04KT 9999 SCT035 BECMG 2008/2010 22010KT
Report created 19. okt 19:00

between 19. okt 20:00 - 20. okt 20:00

wind 4 knots from various directions visibility > 10km scattered clouds (~50% cover) at 3500 feet

becoming between 20. okt 10:00 - 20. okt 12:00

wind 10 knots from SW (220°)